Time;durP1;ratioP1;P1;durP2;ratioP2;P2;SDS_P1;SDS_P2;PMS_P1;PMS_P2;Temp;Humidity;BMP_temperature;BMP_pressure;BME280_temperature;BME280_humidity;BME280_pressure;Samples;Min_cycle;Max_cycle;Signal;HPM_P1;HPM_P2
2021/07/31 00:02:23;;;;;;;10.57;8.05;;;26.60;99.90;;;;;;5014439;28;20573;-66
2021/07/31 00:04:50;;;;;;;8.10;7.30;;;26.70;99.90;;;;;;5010589;28;20121;-65
2021/07/31 00:07:16;;;;;;;11.00;7.78;;;26.70;99.90;;;;;;5002224;28;20057;-65
2021/07/31 00:09:42;;;;;;;8.30;7.50;;;26.70;99.90;;;;;;5021878;28;20129;-65
2021/07/31 00:12:07;;;;;;;8.45;7.65;;;26.60;99.90;;;;;;5017840;28;20136;-65
2021/07/31 00:14:51;;;;;;;9.18;7.85;;;26.60;99.90;;;;;;5027978;28;20459;-65
2021/07/31 00:17:17;;;;;;;8.75;7.95;;;26.50;99.90;;;;;;4996373;28;20120;-65
2021/07/31 00:19:43;;;;;;;10.85;8.18;;;26.50;99.90;;;;;;5029273;28;20136;-66
2021/07/31 00:22:08;;;;;;;7.68;7.00;;;26.40;99.90;;;;;;5003085;28;20503;-66
2021/07/31 00:24:34;;;;;;;8.70;7.60;;;26.40;99.90;;;;;;5014553;28;20038;-66
2021/07/31 00:27:01;;;;;;;10.85;8.68;;;26.40;99.90;;;;;;5007776;28;20034;-66
2021/07/31 00:29:27;;;;;;;10.15;7.95;;;26.50;99.90;;;;;;5005758;28;20053;-65
2021/07/31 00:31:52;;;;;;;19.52;10.43;;;26.40;99.90;;;;;;5013284;28;20775;-66
2021/07/31 00:34:18;;;;;;;38.40;12.98;;;26.40;99.90;;;;;;5013148;28;20046;-66
2021/07/31 00:36:43;;;;;;;23.73;11.57;;;26.00;99.90;;;;;;5014761;28;20045;-63
2021/07/31 00:39:09;;;;;;;16.05;10.95;;;26.00;99.90;;;;;;5011854;28;20050;-65
2021/07/31 00:41:41;;;;;;;14.05;11.85;;;25.80;99.90;;;;;;5010444;28;20033;-65
2021/07/31 00:44:06;;;;;;;18.48;13.35;;;25.90;99.90;;;;;;5005710;28;20068;-66
2021/07/31 00:46:32;;;;;;;21.70;14.48;;;25.80;99.90;;;;;;5025551;28;20034;-66
2021/07/31 00:48:58;;;;;;;16.58;13.63;;;25.80;99.90;;;;;;5018103;28;20038;-66
2021/07/31 00:51:23;;;;;;;15.43;13.48;;;25.70;99.90;;;;;;5024980;28;20490;-66
2021/07/31 00:53:50;;;;;;;18.20;13.93;;;25.80;99.90;;;;;;5023921;28;20067;-66
2021/07/31 00:56:16;;;;;;;16.15;14.43;;;25.90;99.90;;;;;;5026702;28;20057;-67
2021/07/31 00:58:42;;;;;;;15.57;13.95;;;25.90;99.90;;;;;;5027220;28;20064;-67
2021/07/31 01:01:08;;;;;;;15.60;14.02;;;25.90;99.90;;;;;;5028324;28;20029;-67
2021/07/31 01:03:33;;;;;;;15.55;13.85;;;25.90;99.90;;;;;;5023723;28;20133;-67
2021/07/31 01:05:59;;;;;;;15.80;14.35;;;25.90;99.90;;;;;;5025435;28;20080;-66
2021/07/31 01:08:25;;;;;;;14.93;13.60;;;25.80;99.90;;;;;;5030029;28;20491;-66
2021/07/31 01:10:51;;;;;;;15.15;13.65;;;25.70;99.90;;;;;;5007430;28;20654;-66
2021/07/31 01:13:30;;;;;;;15.27;13.73;;;25.70;99.90;;;;;;5017360;28;20044;-66
2021/07/31 01:16:07;;;;;;;15.15;13.10;;;25.70;99.90;;;;;;5006463;28;20095;-66
2021/07/31 01:18:34;;;;;;;15.50;13.82;;;25.80;99.90;;;;;;5003620;28;20039;-66
2021/07/31 01:21:00;;;;;;;14.10;12.90;;;25.80;99.90;;;;;;5001147;28;20049;-67
2021/07/31 01:23:25;;;;;;;14.77;13.27;;;25.70;99.90;;;;;;5011574;28;20451;-66
2021/07/31 01:25:51;;;;;;;14.52;12.98;;;25.70;99.90;;;;;;5020565;28;20120;-66
2021/07/31 01:28:17;;;;;;;12.40;11.10;;;25.70;99.90;;;;;;5028249;28;20064;-66
2021/07/31 01:30:43;;;;;;;12.68;11.35;;;25.70;99.90;;;;;;5005478;28;20544;-66
2021/07/31 01:33:09;;;;;;;14.40;12.68;;;25.80;99.90;;;;;;5010278;28;20124;-66
2021/07/31 01:35:34;;;;;;;14.57;12.30;;;25.80;99.90;;;;;;5015920;28;20132;-66
2021/07/31 01:38:01;;;;;;;14.00;11.63;;;25.80;99.90;;;;;;5009748;28;20053;-66
2021/07/31 01:40:28;;;;;;;12.48;11.27;;;25.70;99.90;;;;;;5002182;28;20053;-66
2021/07/31 01:42:56;;;;;;;10.90;9.77;;;25.70;99.90;;;;;;5022852;28;20068;-66
2021/07/31 01:45:25;;;;;;;11.95;10.77;;;25.60;99.90;;;;;;5021725;28;20045;-66
2021/07/31 01:47:51;;;;;;;12.98;11.68;;;25.60;99.90;;;;;;5023013;28;20033;-66
2021/07/31 01:50:17;;;;;;;14.77;10.77;;;25.60;99.90;;;;;;5006900;28;20052;-66
2021/07/31 01:52:46;;;;;;;11.18;10.20;;;25.60;99.90;;;;;;5026973;28;20475;-66
2021/07/31 01:55:13;;;;;;;10.90;9.90;;;25.60;99.90;;;;;;5017705;28;20117;-66
2021/07/31 01:57:38;;;;;;;12.30;10.10;;;25.50;99.90;;;;;;5015818;28;20129;-66
2021/07/31 02:00:08;;;;;;;11.40;10.38;;;25.50;99.90;;;;;;5025059;28;20539;-66
2021/07/31 02:02:34;;;;;;;11.65;10.52;;;25.50;99.90;;;;;;5018441;28;20158;-66
2021/07/31 02:05:00;;;;;;;11.18;10.18;;;25.60;99.90;;;;;;4999529;28;20506;-67
2021/07/31 02:07:25;;;;;;;13.27;10.98;;;25.50;99.90;;;;;;5013961;28;20034;-66
2021/07/31 02:09:51;;;;;;;12.52;11.23;;;25.50;99.90;;;;;;5010636;28;20484;-66
2021/07/31 02:12:16;;;;;;;11.50;10.52;;;25.50;99.90;;;;;;4997721;28;20042;-66
2021/07/31 02:14:42;;;;;;;12.30;10.73;;;25.50;99.90;;;;;;5001059;28;20045;-66
2021/07/31 02:17:08;;;;;;;12.23;10.98;;;25.50;99.90;;;;;;5001333;28;20121;-66
2021/07/31 02:19:33;;;;;;;12.68;11.38;;;25.50;99.90;;;;;;5027267;28;20061;-66
2021/07/31 02:22:00;;;;;;;13.23;11.57;;;25.50;99.90;;;;;;5012521;28;20060;-66
2021/07/31 02:24:25;;;;;;;14.07;10.73;;;25.50;99.90;;;;;;5010076;28;20068;-66
2021/07/31 02:26:51;;;;;;;11.85;10.65;;;25.60;99.90;;;;;;5013859;28;20062;-66
2021/07/31 02:29:17;;;;;;;11.95;10.75;;;25.60;99.90;;;;;;5024927;28;20087;-66
2021/07/31 02:31:43;;;;;;;12.07;10.98;;;25.50;99.90;;;;;;5022758;28;20044;-66
2021/07/31 02:34:08;;;;;;;12.10;11.00;;;25.50;99.90;;;;;;5019954;28;20944;-66
2021/07/31 02:36:34;;;;;;;14.80;11.85;;;25.50;99.90;;;;;;5007724;28;20366;-66
2021/07/31 02:38:59;;;;;;;15.57;11.95;;;25.50;99.90;;;;;;5010371;28;20042;-66
2021/07/31 02:41:25;;;;;;;11.32;10.27;;;25.50;99.90;;;;;;5010536;28;20454;-66
2021/07/31 02:43:50;;;;;;;11.93;10.90;;;25.50;99.90;;;;;;5011669;28;20412;-66
2021/07/31 02:46:16;;;;;;;11.38;10.38;;;25.50;99.90;;;;;;5026047;28;20049;-65
2021/07/31 02:48:42;;;;;;;12.60;11.43;;;25.50;99.90;;;;;;5020190;28;20410;-66
2021/07/31 02:51:13;;;;;;;11.50;10.40;;;25.50;99.90;;;;;;5021531;28;20138;-66
2021/07/31 02:53:39;;;;;;;12.13;10.88;;;25.50;99.90;;;;;;5004107;28;20111;-66
2021/07/31 02:56:06;;;;;;;11.75;10.57;;;25.50;99.90;;;;;;5012809;28;20045;-66
2021/07/31 02:58:32;;;;;;;11.88;10.68;;;25.50;99.90;;;;;;5017621;28;20041;-66
2021/07/31 03:01:06;;;;;;;11.07;10.05;;;25.50;99.90;;;;;;5026159;28;20084;-66
2021/07/31 03:03:31;;;;;;;12.02;10.82;;;25.50;99.90;;;;;;5018768;28;20140;-66
2021/07/31 03:05:58;;;;;;;12.32;11.07;;;25.50;99.90;;;;;;5002738;28;20473;-65
2021/07/31 03:08:27;;;;;;;13.18;11.68;;;25.40;99.90;;;;;;5022552;28;20365;-66
2021/07/31 03:10:57;;;;;;;11.82;10.70;;;25.40;99.90;;;;;;5004548;28;20041;-65
2021/07/31 03:13:23;;;;;;;12.25;10.85;;;25.40;99.90;;;;;;4997534;28;20057;-66
2021/07/31 03:15:49;;;;;;;11.27;9.98;;;25.40;99.90;;;;;;5001559;28;20038;-65
2021/07/31 03:18:15;;;;;;;12.02;10.50;;;25.50;99.90;;;;;;5024739;28;20088;-64
2021/07/31 03:20:51;;;;;;;11.68;10.52;;;25.50;99.90;;;;;;5005467;28;20478;-66
2021/07/31 03:23:19;;;;;;;12.27;11.18;;;25.50;99.90;;;;;;5023012;28;20053;-65
2021/07/31 03:25:45;;;;;;;14.88;10.95;;;25.40;99.90;;;;;;5001695;28;20072;-64
2021/07/31 03:28:12;;;;;;;12.23;10.63;;;25.30;99.90;;;;;;5022231;28;20515;-65
2021/07/31 03:30:41;;;;;;;11.95;10.65;;;25.30;99.90;;;;;;5008319;28;20037;-66
2021/07/31 03:33:08;;;;;;;11.40;10.30;;;25.30;99.90;;;;;;5020806;28;20042;-66
2021/07/31 03:35:34;;;;;;;10.77;9.80;;;25.30;99.90;;;;;;5018117;28;21127;-66
2021/07/31 03:38:00;;;;;;;12.65;10.45;;;25.30;99.90;;;;;;5011442;28;20026;-66
2021/07/31 03:40:25;;;;;;;11.88;10.45;;;25.30;99.90;;;;;;5021703;28;20060;-65
2021/07/31 03:42:51;;;;;;;11.40;10.40;;;25.30;99.90;;;;;;5008622;28;20041;-65
2021/07/31 03:45:16;;;;;;;14.15;10.50;;;25.30;99.90;;;;;;5020627;28;20038;-66
2021/07/31 03:47:42;;;;;;;11.90;10.70;;;25.20;99.90;;;;;;5021807;28;20096;-66
2021/07/31 03:50:08;;;;;;;12.52;10.50;;;25.20;99.90;;;;;;5020959;28;20045;-66
2021/07/31 03:52:34;;;;;;;11.68;9.80;;;25.20;99.90;;;;;;5024130;28;20033;-66
2021/07/31 03:54:59;;;;;;;11.85;10.57;;;25.20;99.90;;;;;;5013863;28;20038;-66
2021/07/31 03:57:25;;;;;;;11.35;10.18;;;25.20;99.90;;;;;;5003034;28;20038;-66
2021/07/31 03:59:50;;;;;;;13.38;9.88;;;25.30;99.90;;;;;;5006551;28;20053;-65
2021/07/31 04:02:19;;;;;;;12.10;9.75;;;25.20;99.90;;;;;;5005572;28;20594;-65
2021/07/31 04:04:44;;;;;;;11.50;10.50;;;25.20;99.90;;;;;;5013088;28;20049;-64
2021/07/31 04:07:10;;;;;;;11.13;10.02;;;25.20;99.90;;;;;;5000802;28;21658;-66
2021/07/31 04:09:36;;;;;;;12.55;11.00;;;25.20;99.90;;;;;;5008559;28;20125;-66
2021/07/31 04:12:01;;;;;;;11.85;10.68;;;25.20;99.90;;;;;;5010836;28;20499;-66
2021/07/31 04:14:29;;;;;;;10.88;9.82;;;25.20;99.90;;;;;;5025005;28;20034;-66
2021/07/31 04:16:55;;;;;;;11.35;10.25;;;25.20;99.90;;;;;;5018220;28;20033;-66
2021/07/31 04:19:20;;;;;;;10.93;9.93;;;25.20;99.90;;;;;;5028856;28;20103;-65
2021/07/31 04:21:46;;;;;;;10.60;9.63;;;25.20;99.90;;;;;;5022002;28;20801;-65
2021/07/31 04:24:12;;;;;;;11.23;9.40;;;25.20;99.90;;;;;;5022796;28;20476;-66
2021/07/31 04:26:37;;;;;;;11.27;10.35;;;25.10;99.90;;;;;;5011128;28;20034;-66
2021/07/31 04:29:03;;;;;;;11.23;9.80;;;25.10;99.90;;;;;;5023855;28;20059;-65
2021/07/31 04:31:29;;;;;;;10.82;9.82;;;25.20;99.90;;;;;;5031190;28;20116;-67
2021/07/31 04:34:13;;;;;;;11.00;10.00;;;25.20;99.90;;;;;;5019678;28;20065;-66
2021/07/31 04:36:39;;;;;;;;;;;25.20;99.90;;;;;;5027779;28;20478;-65
2021/07/31 04:39:05;;;;;;;11.45;9.57;;;25.10;99.90;;;;;;5022907;28;19967;-66
2021/07/31 04:41:31;;;;;;;11.98;9.48;;;25.10;99.90;;;;;;5010512;28;20403;-66
2021/07/31 04:43:57;;;;;;;11.25;10.13;;;25.10;99.90;;;;;;5018618;28;20029;-65
2021/07/31 04:46:22;;;;;;;10.52;9.52;;;25.20;99.90;;;;;;5028508;28;20571;-65
2021/07/31 04:48:48;;;;;;;10.88;9.77;;;25.20;99.90;;;;;;5014042;28;20529;-65
2021/07/31 04:51:14;;;;;;;10.75;9.65;;;25.20;99.90;;;;;;5016951;28;20061;-66
2021/07/31 04:53:40;;;;;;;10.75;9.70;;;25.30;99.90;;;;;;5026951;28;20476;-66
2021/07/31 04:56:05;;;;;;;12.30;9.38;;;25.20;99.90;;;;;;5028894;28;20475;-65
2021/07/31 04:58:32;;;;;;;11.85;10.75;;;25.20;99.90;;;;;;5022753;28;20037;-65
2021/07/31 05:01:00;;;;;;;13.00;10.52;;;25.30;99.90;;;;;;5035883;28;20102;-65
2021/07/31 05:03:27;;;;;;;11.82;10.63;;;25.30;99.90;;;;;;5022455;28;20501;-65
2021/07/31 05:05:53;;;;;;;12.68;11.38;;;25.30;99.90;;;;;;5019963;28;20073;-65
2021/07/31 05:08:19;;;;;;;14.32;12.45;;;25.30;99.90;;;;;;5009200;28;22666;-65
2021/07/31 05:10:49;;;;;;;12.20;10.93;;;25.30;99.90;;;;;;5027374;28;20180;-65
2021/07/31 05:13:15;;;;;;;14.07;11.27;;;25.30;99.90;;;;;;5023132;28;20036;-66
2021/07/31 05:15:43;;;;;;;13.27;11.70;;;25.40;99.90;;;;;;5027648;28;20034;-65
2021/07/31 05:18:10;;;;;;;11.93;10.75;;;25.40;99.90;;;;;;5027149;28;20038;-65
2021/07/31 05:20:40;;;;;;;13.68;12.27;;;25.40;99.90;;;;;;5006890;28;21255;-65
2021/07/31 05:23:06;;;;;;;13.63;12.20;;;25.40;99.90;;;;;;5009322;28;20049;-65
2021/07/31 05:25:32;;;;;;;13.02;11.77;;;25.40;99.90;;;;;;5024866;28;20041;-65
2021/07/31 05:27:58;;;;;;;15.00;13.57;;;25.40;99.90;;;;;;5019021;28;20037;-65
2021/07/31 05:30:23;;;;;;;13.80;12.40;;;25.40;99.90;;;;;;5026671;28;20046;-65
2021/07/31 05:32:49;;;;;;;14.90;13.07;;;25.40;99.90;;;;;;5028137;28;20053;-65
2021/07/31 05:35:15;;;;;;;16.67;13.23;;;25.40;99.90;;;;;;5005851;28;20037;-65
2021/07/31 05:37:41;;;;;;;15.82;12.27;;;25.40;99.90;;;;;;5027930;28;20042;-65
2021/07/31 05:40:07;;;;;;;15.93;12.45;;;25.30;99.90;;;;;;5014752;28;20480;-65
2021/07/31 05:42:33;;;;;;;13.05;11.70;;;25.30;99.90;;;;;;5007481;28;20042;-65
2021/07/31 05:45:01;;;;;;;14.02;12.63;;;25.30;99.90;;;;;;5011675;28;20556;-65
2021/07/31 05:47:28;;;;;;;13.63;12.18;;;25.30;99.90;;;;;;5000497;28;20038;-66
2021/07/31 05:49:57;;;;;;;13.55;11.05;;;25.40;99.90;;;;;;5022160;28;20060;-66
2021/07/31 05:52:28;;;;;;;13.95;12.55;;;25.40;99.90;;;;;;5027207;28;20095;-66
2021/07/31 05:54:57;;;;;;;13.57;12.27;;;25.50;99.90;;;;;;5025862;28;20124;-66
2021/07/31 05:57:22;;;;;;;18.20;12.85;;;25.60;99.90;;;;;;5012917;28;20046;-65
2021/07/31 05:59:48;;;;;;;14.85;13.35;;;25.50;99.90;;;;;;5025221;28;20048;-66
2021/07/31 06:02:14;;;;;;;16.25;12.90;;;25.50;99.90;;;;;;5018403;28;20035;-65
2021/07/31 06:04:41;;;;;;;15.95;13.00;;;25.50;99.90;;;;;;5027333;28;20033;-65
2021/07/31 06:07:07;;;;;;;14.02;12.48;;;25.50;99.90;;;;;;5024994;28;20107;-65
2021/07/31 06:09:34;;;;;;;14.35;12.85;;;25.60;99.90;;;;;;5022419;28;20132;-65
2021/07/31 06:12:00;;;;;;;12.82;11.52;;;25.60;99.90;;;;;;5022715;28;20041;-65
2021/07/31 06:14:27;;;;;;;12.18;10.95;;;25.70;99.90;;;;;;5010368;28;20048;-66
2021/07/31 06:16:53;;;;;;;14.30;12.20;;;25.70;99.90;;;;;;5023173;28;20439;-65
2021/07/31 06:19:18;;;;;;;14.95;11.55;;;25.70;99.90;;;;;;5008618;28;20167;-65
2021/07/31 06:21:44;;;;;;;12.77;11.48;;;25.60;99.90;;;;;;5019592;28;20106;-66
2021/07/31 06:24:10;;;;;;;14.23;12.18;;;25.70;99.90;;;;;;5019429;28;20038;-66
2021/07/31 06:26:35;;;;;;;14.32;10.73;;;25.80;99.90;;;;;;5012063;28;20167;-66
2021/07/31 06:29:01;;;;;;;13.30;11.77;;;25.90;99.90;;;;;;5007858;28;20041;-65
2021/07/31 06:31:27;;;;;;;14.45;12.70;;;26.00;99.90;;;;;;4992868;28;21624;-65
2021/07/31 06:33:52;;;;;;;14.60;12.98;;;26.00;99.90;;;;;;5009292;28;20049;-65
2021/07/31 06:36:19;;;;;;;16.42;14.02;;;25.90;99.90;;;;;;5023135;28;20029;-65
2021/07/31 06:38:46;;;;;;;15.93;14.32;;;25.80;99.90;;;;;;5026552;28;20435;-66
2021/07/31 06:41:11;;;;;;;14.07;12.60;;;25.80;99.90;;;;;;5024280;28;20049;-67
2021/07/31 06:43:37;;;;;;;16.88;13.82;;;25.80;99.90;;;;;;5008061;28;20041;-66
2021/07/31 06:46:13;;;;;;;16.23;14.55;;;25.80;99.90;;;;;;5015741;28;20038;-66
2021/07/31 06:48:38;;;;;;;18.05;14.10;;;25.80;99.90;;;;;;5014128;28;20041;-66
2021/07/31 06:51:04;;;;;;;16.75;14.95;;;25.90;99.90;;;;;;5021512;28;20045;-66
2021/07/31 06:53:30;;;;;;;16.13;14.43;;;25.90;99.90;;;;;;5019556;28;20030;-66
2021/07/31 06:55:59;;;;;;;16.65;14.88;;;25.90;99.90;;;;;;5020785;28;20129;-65
2021/07/31 06:58:24;;;;;;;16.60;12.32;;;26.00;99.90;;;;;;5013196;28;20037;-66
2021/07/31 07:00:50;;;;;;;15.30;13.70;;;26.10;99.90;;;;;;5015042;28;20050;-65
2021/07/31 07:03:16;;;;;;;15.38;13.35;;;26.10;99.90;;;;;;5007559;28;20184;-60
2021/07/31 07:05:42;;;;;;;13.65;12.18;;;26.10;99.90;;;;;;5023535;28;20049;-65
2021/07/31 07:08:07;;;;;;;16.13;13.40;;;26.20;99.90;;;;;;5020513;28;20037;-66
2021/07/31 07:10:33;;;;;;;14.95;13.45;;;26.20;99.90;;;;;;5027872;28;20469;-66
2021/07/31 07:12:59;;;;;;;15.18;13.48;;;26.20;99.90;;;;;;5023693;28;20045;-66
2021/07/31 07:15:27;;;;;;;14.07;11.93;;;26.30;99.90;;;;;;5009626;28;20552;-65
2021/07/31 07:17:53;;;;;;;13.82;11.77;;;26.30;99.90;;;;;;5025476;28;20041;-66
2021/07/31 07:20:19;;;;;;;14.30;11.60;;;26.30;99.90;;;;;;5022684;28;20041;-65
2021/07/31 07:22:45;;;;;;;11.23;10.18;;;26.30;99.90;;;;;;5021847;28;20048;-66
2021/07/31 07:25:11;;;;;;;14.18;12.48;;;26.50;99.90;;;;;;5005729;28;20116;-66
2021/07/31 07:27:37;;;;;;;13.45;11.50;;;26.60;99.90;;;;;;5024962;28;20115;-66
2021/07/31 07:30:04;;;;;;;11.45;10.23;;;26.70;99.90;;;;;;5021895;28;20480;-66
2021/07/31 07:32:30;;;;;;;13.40;11.70;;;26.70;99.90;;;;;;5022591;28;20053;-67
2021/07/31 07:34:55;;;;;;;12.00;10.80;;;26.80;99.90;;;;;;5005565;28;20088;-66
2021/07/31 07:37:21;;;;;;;12.07;10.98;;;26.80;99.90;;;;;;5006882;28;20038;-67
2021/07/31 07:39:46;;;;;;;12.10;10.75;;;26.80;99.90;;;;;;5003380;28;20389;-65
2021/07/31 07:42:12;;;;;;;11.25;10.15;;;26.80;99.90;;;;;;5011491;28;20046;-66
2021/07/31 07:44:37;;;;;;;12.23;10.98;;;26.70;99.90;;;;;;5008317;28;20042;-66
2021/07/31 07:47:03;;;;;;;10.93;9.82;;;26.70;99.90;;;;;;5014637;28;20038;-67
2021/07/31 07:49:29;;;;;;;10.18;9.18;;;26.70;99.90;;;;;;5024215;28;20044;-67
2021/07/31 07:51:55;;;;;;;10.35;9.40;;;26.80;99.90;;;;;;5028695;28;20103;-67
2021/07/31 07:54:21;;;;;;;10.90;9.80;;;26.80;99.90;;;;;;5028590;28;20083;-67
2021/07/31 07:56:46;;;;;;;13.50;10.13;;;26.80;99.90;;;;;;4984944;28;20033;-64
2021/07/31 07:59:12;;;;;;;10.43;9.52;;;26.70;99.90;;;;;;5009229;28;20041;-68
2021/07/31 08:01:37;;;;;;;10.30;9.40;;;26.80;99.90;;;;;;5006192;28;20042;-67
2021/07/31 08:04:03;;;;;;;11.65;9.48;;;26.80;99.90;;;;;;5026067;28;20038;-67
2021/07/31 08:06:29;;;;;;;9.73;8.77;;;26.90;99.90;;;;;;5007253;28;20034;-67
2021/07/31 08:08:54;;;;;;;10.40;9.38;;;27.00;99.90;;;;;;5007767;28;20037;-67
2021/07/31 08:11:48;;;;;;;11.00;9.70;;;27.10;99.90;;;;;;4994098;28;20037;-67
2021/07/31 08:14:14;;;;;;;12.07;9.73;;;27.10;99.90;;;;;;5015619;28;20148;-67
2021/07/31 08:16:40;;;;;;;11.48;9.55;;;27.20;99.90;;;;;;5022460;28;20279;-67
2021/07/31 08:19:11;;;;;;;10.73;9.70;;;27.20;99.90;;;;;;5029614;28;20380;-67
2021/07/31 08:21:38;;;;;;;11.63;10.45;;;27.20;99.90;;;;;;5017385;28;20166;-67
2021/07/31 08:24:05;;;;;;;11.38;10.23;;;27.30;99.90;;;;;;5014320;28;20051;-67
2021/07/31 08:26:30;;;;;;;11.73;10.18;;;27.40;99.90;;;;;;5020471;28;20034;-67
2021/07/31 08:28:56;;;;;;;10.52;9.52;;;27.50;99.90;;;;;;5016234;28;20030;-67
2021/07/31 08:31:24;;;;;;;11.10;9.52;;;27.60;99.90;;;;;;5017905;28;20026;-67
2021/07/31 08:33:50;;;;;;;11.32;10.23;;;27.80;99.90;;;;;;5025851;28;20437;-67
2021/07/31 08:36:27;;;;;;;11.52;10.38;;;27.90;99.90;;;;;;5022182;28;20046;-68
2021/07/31 08:38:53;;;;;;;10.73;9.68;;;28.00;99.90;;;;;;4965415;28;20794;-67
2021/07/31 08:41:21;;;;;;;12.93;10.85;;;28.20;99.90;;;;;;5025914;28;20044;-68
2021/07/31 08:43:51;;;;;;;11.98;9.00;;;28.30;99.90;;;;;;5028280;28;20048;-65
2021/07/31 08:46:17;;;;;;;11.15;9.65;;;28.40;99.90;;;;;;5030248;28;20029;-65
2021/07/31 08:48:43;;;;;;;10.43;9.45;;;28.30;99.90;;;;;;5023381;28;20495;-66
2021/07/31 08:51:09;;;;;;;11.35;10.25;;;28.40;99.90;;;;;;5026235;28;20056;-67
2021/07/31 08:53:35;;;;;;;10.93;10.02;;;28.30;99.90;;;;;;5022323;28;20030;-66
2021/07/31 08:56:01;;;;;;;11.30;10.20;;;28.40;99.90;;;;;;5021607;28;20096;-67
2021/07/31 08:58:28;;;;;;;11.18;9.20;;;28.40;99.90;;;;;;4997624;28;20038;-66
2021/07/31 09:00:58;;;;;;;10.63;9.63;;;28.40;99.90;;;;;;5007256;28;20128;-67
2021/07/31 09:03:30;;;;;;;11.70;10.55;;;28.50;99.90;;;;;;5005159;28;20054;-66
2021/07/31 09:05:56;;;;;;;12.75;10.43;;;28.40;99.90;;;;;;5013773;28;20041;-66
2021/07/31 09:08:22;;;;;;;14.23;10.40;;;28.60;99.90;;;;;;5003592;28;20038;-67
2021/07/31 09:10:48;;;;;;;15.38;12.02;;;28.60;99.90;;;;;;5020528;28;20077;-59
2021/07/31 09:13:16;;;;;;;10.90;9.82;;;28.60;99.90;;;;;;5015395;28;20042;-67
2021/07/31 09:15:41;;;;;;;12.75;11.23;;;28.50;99.90;;;;;;5026683;28;20065;-67
2021/07/31 09:18:24;;;;;;;11.88;10.52;;;28.70;99.90;;;;;;5015870;28;20070;-67
2021/07/31 09:21:14;;;;;;;11.60;9.82;;;28.90;99.90;;;;;;5017390;28;20050;-66
2021/07/31 09:23:45;;;;;;;12.40;10.45;;;29.10;99.90;;;;;;5012574;28;20134;-67
2021/07/31 09:26:12;;;;;;;11.30;10.05;;;29.10;99.90;;;;;;5028472;28;20128;-67
2021/07/31 09:28:40;;;;;;;11.55;10.20;;;29.20;99.90;;;;;;4990463;28;20065;-67
2021/07/31 09:31:07;;;;;;;11.90;10.70;;;29.20;99.90;;;;;;5020658;28;20041;-67
2021/07/31 09:33:33;;;;;;;11.80;10.60;;;29.10;99.90;;;;;;5002554;28;20087;-67
2021/07/31 09:36:04;;;;;;;11.40;10.27;;;29.00;99.90;;;;;;5020008;28;20053;-67
2021/07/31 09:38:49;;;;;;;11.40;9.98;;;28.90;99.90;;;;;;5004720;28;20041;-67
2021/07/31 09:41:34;;;;;;;11.52;9.82;;;28.80;99.90;;;;;;5005455;28;20496;-67
2021/07/31 09:44:01;;;;;;;11.43;10.30;;;28.70;99.90;;;;;;4976515;28;20034;-67
2021/07/31 09:46:48;;;;;;;12.05;10.93;;;28.80;99.90;;;;;;5006538;28;20048;-67
2021/07/31 09:49:18;;;;;;;11.52;10.48;;;28.70;99.90;;;;;;5019203;28;20103;-67
2021/07/31 09:51:48;;;;;;;12.10;10.20;;;28.70;99.90;;;;;;4993700;28;20472;-66
2021/07/31 09:54:16;;;;;;;10.57;9.25;;;28.70;99.90;;;;;;5023873;28;20030;-67
2021/07/31 09:56:46;;;;;;;11.13;10.13;;;28.80;99.90;;;;;;5018386;28;20042;-67
2021/07/31 09:59:14;;;;;;;11.57;9.73;;;28.90;99.90;;;;;;5018868;28;20042;-66
2021/07/31 10:01:45;;;;;;;11.77;10.55;;;28.80;99.90;;;;;;5025623;28;20128;-66
2021/07/31 10:04:11;;;;;;;11.75;10.68;;;28.70;99.90;;;;;;5025063;28;20037;-67
2021/07/31 10:06:37;;;;;;;10.48;9.35;;;28.50;99.90;;;;;;5019443;28;20032;-67
2021/07/31 10:09:05;;;;;;;10.93;9.73;;;28.60;99.90;;;;;;5012838;28;20045;-67
2021/07/31 10:11:35;;;;;;;11.00;10.00;;;28.70;99.90;;;;;;5022984;28;20033;-67
2021/07/31 10:14:04;;;;;;;11.70;10.50;;;28.70;99.90;;;;;;5018329;28;20044;-67
2021/07/31 10:16:32;;;;;;;9.85;8.90;;;28.70;99.90;;;;;;5023985;28;20422;-67
2021/07/31 10:19:01;;;;;;;11.23;9.63;;;29.00;99.90;;;;;;5024380;28;20044;-67
2021/07/31 10:21:27;;;;;;;10.18;7.82;;;29.10;99.90;;;;;;5012732;28;20038;-66
2021/07/31 10:24:04;;;;;;;9.88;8.85;;;29.20;99.90;;;;;;5009302;28;20034;-67
2021/07/31 10:26:31;;;;;;;10.93;8.07;;;29.40;99.90;;;;;;5013878;28;20041;-67
2021/07/31 10:29:32;;;;;;;9.73;8.80;;;29.30;99.90;;;;;;5009008;28;20053;-67
2021/07/31 10:32:21;;;;;;;10.10;8.82;;;29.30;99.90;;;;;;4973436;28;20487;-67
2021/07/31 10:34:58;;;;;;;9.57;8.60;;;29.40;99.90;;;;;;5013772;28;20045;-67
2021/07/31 10:37:34;;;;;;;8.75;8.05;;;29.60;99.90;;;;;;4970690;28;20072;-66
2021/07/31 10:40:08;;;;;;;8.38;7.55;;;29.50;99.90;;;;;;5024776;28;20041;-67
2021/07/31 10:42:54;;;;;;;7.75;7.15;;;29.60;99.90;;;;;;5003611;28;20042;-67
2021/07/31 10:45:23;;;;;;;7.05;6.45;;;29.60;98.80;;;;;;5009184;28;20038;-66
2021/07/31 10:47:50;;;;;;;7.80;6.05;;;29.60;98.60;;;;;;5018911;28;20033;-67
2021/07/31 10:52:57;;;;;;;8.55;7.60;;;30.10;98.80;;;;;;5013747;28;20383;-67
2021/07/31 10:55:46;;;;;;;7.22;6.53;;;30.30;98.20;;;;;;5009571;28;20060;-67
2021/07/31 10:58:15;;;;;;;8.38;7.03;;;30.30;96.10;;;;;;4990577;28;20091;-67
2021/07/31 11:00:55;;;;;;;8.05;7.22;;;30.70;96.30;;;;;;5007066;28;20045;-67
2021/07/31 11:03:21;;;;;;;9.32;7.78;;;31.00;96.10;;;;;;5004886;28;20042;-67
2021/07/31 11:05:49;;;;;;;7.80;7.00;;;31.20;95.40;;;;;;5016523;28;20049;-68
2021/07/31 11:08:19;;;;;;;6.88;6.15;;;31.00;93.80;;;;;;5017056;28;20059;-68
2021/07/31 11:10:47;;;;;;;6.55;5.95;;;30.80;92.30;;;;;;5025218;28;20037;-68
2021/07/31 11:13:19;;;;;;;7.40;6.72;;;30.90;92.40;;;;;;5017137;28;20034;-68
2021/07/31 11:15:58;;;;;;;6.45;5.93;;;31.20;91.50;;;;;;5029471;28;20127;-67
2021/07/31 11:18:24;;;;;;;7.28;6.57;;;31.30;91.50;;;;;;4971395;28;20041;-67
2021/07/31 11:20:50;;;;;;;7.57;5.38;;;31.50;91.70;;;;;;5026919;28;20084;-67
2021/07/31 11:23:18;;;;;;;6.75;5.75;;;31.80;86.00;;;;;;5028520;28;20069;-67
2021/07/31 11:25:44;;;;;;;6.38;5.78;;;32.50;81.90;;;;;;5025838;28;20026;-68
2021/07/31 11:28:10;;;;;;;7.20;5.82;;;33.40;78.40;;;;;;5025005;28;20124;-68
2021/07/31 11:30:47;;;;;;;7.35;5.70;;;33.20;76.60;;;;;;5030209;28;20169;-67
2021/07/31 11:33:24;;;;;;;6.38;5.78;;;33.10;71.20;;;;;;5022079;28;20132;-68
2021/07/31 11:35:52;;;;;;;7.40;5.97;;;33.30;75.70;;;;;;5021861;28;20044;-67
2021/07/31 11:38:40;;;;;;;5.70;5.15;;;33.40;71.10;;;;;;5022820;28;20489;-67
2021/07/31 11:41:14;;;;;;;5.43;5.05;;;33.80;69.50;;;;;;4985813;28;20042;-67
2021/07/31 11:43:54;;;;;;;5.80;5.30;;;34.20;67.10;;;;;;5007138;28;20037;-68
2021/07/31 11:46:37;;;;;;;6.22;5.82;;;34.20;65.80;;;;;;5027671;28;20046;-67
2021/07/31 11:49:09;;;;;;;6.03;5.50;;;34.10;66.20;;;;;;5015196;28;20038;-68
2021/07/31 11:51:46;;;;;;;5.55;5.03;;;34.10;64.30;;;;;;5012554;28;20057;-69
2021/07/31 11:54:13;;;;;;;6.00;5.50;;;34.60;62.50;;;;;;4995071;28;20037;-68
2021/07/31 11:56:41;;;;;;;6.95;5.93;;;34.70;73.60;;;;;;5028978;28;20080;-68
2021/07/31 11:59:08;;;;;;;6.68;5.70;;;34.60;79.50;;;;;;5009223;28;20025;-68
2021/07/31 12:01:38;;;;;;;6.18;5.68;;;34.90;80.80;;;;;;5011184;28;20100;-68
2021/07/31 12:04:04;;;;;;;5.95;5.38;;;35.40;77.50;;;;;;4998071;28;20076;-68
2021/07/31 12:06:42;;;;;;;6.40;5.80;;;35.10;82.90;;;;;;5015450;28;20037;-68
2021/07/31 12:09:22;;;;;;;6.18;5.57;;;35.40;73.20;;;;;;5025286;28;20048;-68
2021/07/31 12:11:50;;;;;;;7.32;6.20;;;36.30;54.50;;;;;;5026573;28;20104;-62
2021/07/31 12:14:40;;;;;;;7.00;5.63;;;37.20;54.20;;;;;;5027238;28;20038;-68
2021/07/31 12:17:14;;;;;;;7.28;6.68;;;36.50;52.50;;;;;;5001344;28;20160;-68
2021/07/31 12:19:52;;;;;;;6.18;5.40;;;36.20;52.90;;;;;;5029245;28;20512;-68
2021/07/31 12:22:19;;;;;;;5.78;5.38;;;36.20;51.90;;;;;;5027914;28;20216;-64
2021/07/31 12:25:04;;;;;;;6.45;5.65;;;36.10;53.80;;;;;;5027276;28;20030;-68
2021/07/31 12:28:15;;;;;;;6.03;5.53;;;36.00;52.60;;;;;;4988541;28;20069;-68
2021/07/31 12:30:48;;;;;;;8.32;5.85;;;36.70;49.50;;;;;;4899411;28;20036;-68
2021/07/31 12:33:17;;;;;;;6.10;5.55;;;37.30;49.20;;;;;;4938785;28;20517;-68
2021/07/31 12:36:04;;;;;;;6.45;5.93;;;37.30;49.10;;;;;;4990947;28;20069;-68
2021/07/31 12:38:30;;;;;;;7.20;6.60;;;36.80;50.10;;;;;;4951153;28;20029;-68
2021/07/31 12:41:01;;;;;;;7.13;6.50;;;37.30;50.10;;;;;;5022148;28;20107;-67
2021/07/31 12:43:29;;;;;;;7.72;5.65;;;37.50;48.80;;;;;;5014878;28;20044;-68